sensor_id;sensor_type;location;lat;lon;timestamp;pressure;altitude;pressure_sealevel;temperature;humidity
66668;BME280;57205;51.438;-2.006;2023-05-12T00:01:22;101322.44;;;10.14;100.00
66668;BME280;57205;51.438;-2.006;2023-05-12T00:03:47;101325.09;;;10.14;100.00
66668;BME280;57205;51.438;-2.006;2023-05-12T00:06:12;101320.78;;;10.13;100.00
66668;BME280;57205;51.438;-2.006;2023-05-12T00:08:38;101316.84;;;10.16;100.00
66668;BME280;57205;51.438;-2.006;2023-05-12T00:11:03;101320.53;;;10.15;100.00
66668;BME280;57205;51.438;-2.006;2023-05-12T00:13:29;101324.03;;;10.15;100.00
66668;BME280;57205;51.438;-2.006;2023-05-12T00:15:54;101321.94;;;10.17;100.00
66668;BME280;57205;51.438;-2.006;2023-05-12T00:18:23;101326.78;;;10.20;100.00
66668;BME280;57205;51.438;-2.006;2023-05-12T00:20:48;101327.91;;;10.24;100.00
66668;BME280;57205;51.438;-2.006;2023-05-12T00:23:13;101340.00;;;10.27;100.00
66668;BME280;57205;51.438;-2.006;2023-05-12T00:25:39;101339.69;;;10.23;100.00
66668;BME280;57205;51.438;-2.006;2023-05-12T00:28:04;101336.59;;;10.15;100.00
66668;BME280;57205;51.438;-2.006;2023-05-12T00:30:30;101341.19;;;10.03;100.00
66668;BME280;57205;51.438;-2.006;2023-05-12T00:32:55;101341.25;;;9.91;100.00
66668;BME280;57205;51.438;-2.006;2023-05-12T00:35:21;101340.59;;;9.84;100.00
66668;BME280;57205;51.438;-2.006;2023-05-12T00:37:46;101340.53;;;9.79;100.00
66668;BME280;57205;51.438;-2.006;2023-05-12T00:40:11;101345.31;;;9.77;100.00
66668;BME280;57205;51.438;-2.006;2023-05-12T00:42:37;101346.09;;;9.77;100.00
66668;BME280;57205;51.438;-2.006;2023-05-12T00:45:03;101346.34;;;9.76;100.00
66668;BME280;57205;51.438;-2.006;2023-05-12T00:47:29;101346.81;;;9.73;100.00
66668;BME280;57205;51.438;-2.006;2023-05-12T00:49:54;101352.63;;;9.70;100.00
66668;BME280;57205;51.438;-2.006;2023-05-12T00:52:20;101354.97;;;9.66;100.00
66668;BME280;57205;51.438;-2.006;2023-05-12T00:54:47;101363.47;;;9.63;100.00
66668;BME280;57205;51.438;-2.006;2023-05-12T00:57:13;101367.03;;;9.52;100.00
66668;BME280;57205;51.438;-2.006;2023-05-12T00:59:38;101371.47;;;9.47;100.00
66668;BME280;57205;51.438;-2.006;2023-05-12T01:02:04;101378.31;;;9.43;100.00
66668;BME280;57205;51.438;-2.006;2023-05-12T01:04:30;101374.97;;;9.36;100.00
66668;BME280;57205;51.438;-2.006;2023-05-12T01:07:10;101376.84;;;9.24;100.00
66668;BME280;57205;51.438;-2.006;2023-05-12T01:09:38;101372.00;;;9.21;100.00
66668;BME280;57205;51.438;-2.006;2023-05-12T01:12:04;101370.38;;;9.20;100.00
66668;BME280;57205;51.438;-2.006;2023-05-12T01:14:29;101374.69;;;9.21;100.00
66668;BME280;57205;51.438;-2.006;2023-05-12T01:16:57;101378.84;;;9.17;100.00
66668;BME280;57205;51.438;-2.006;2023-05-12T01:22:08;101387.00;;;9.10;100.00
66668;BME280;57205;51.438;-2.006;2023-05-12T01:24:41;101390.13;;;9.07;100.00
66668;BME280;57205;51.438;-2.006;2023-05-12T01:27:09;101389.69;;;8.99;100.00
66668;BME280;57205;51.438;-2.006;2023-05-12T01:29:35;101384.81;;;8.96;100.00
66668;BME280;57205;51.438;-2.006;2023-05-12T01:32:01;101395.16;;;8.92;100.00
66668;BME280;57205;51.438;-2.006;2023-05-12T01:34:27;101389.13;;;8.85;100.00
66668;BME280;57205;51.438;-2.006;2023-05-12T01:36:53;101391.69;;;8.80;100.00
66668;BME280;57205;51.438;-2.006;2023-05-12T01:39:18;101395.88;;;8.76;100.00
66668;BME280;57205;51.438;-2.006;2023-05-12T01:41:43;101395.03;;;8.75;100.00
66668;BME280;57205;51.438;-2.006;2023-05-12T01:44:09;101393.44;;;8.74;100.00
66668;BME280;57205;51.438;-2.006;2023-05-12T01:46:34;101399.34;;;8.76;100.00
66668;BME280;57205;51.438;-2.006;2023-05-12T01:49:00;101406.53;;;8.76;100.00
66668;BME280;57205;51.438;-2.006;2023-05-12T01:51:26;101407.22;;;8.71;100.00
66668;BME280;57205;51.438;-2.006;2023-05-12T01:53:51;101409.88;;;8.71;100.00
66668;BME280;57205;51.438;-2.006;2023-05-12T01:56:16;101416.19;;;8.65;100.00
66668;BME280;57205;51.438;-2.006;2023-05-12T01:58:42;101408.03;;;8.60;100.00
66668;BME280;57205;51.438;-2.006;2023-05-12T02:01:07;101412.22;;;8.56;100.00
66668;BME280;57205;51.438;-2.006;2023-05-12T02:03:32;101415.09;;;8.55;100.00
66668;BME280;57205;51.438;-2.006;2023-05-12T02:05:58;101412.69;;;8.53;100.00
66668;BME280;57205;51.438;-2.006;2023-05-12T02:08:23;101420.69;;;8.53;100.00
66668;BME280;57205;51.438;-2.006;2023-05-12T02:10:48;101418.84;;;8.54;100.00
66668;BME280;57205;51.438;-2.006;2023-05-12T02:13:14;101412.81;;;8.47;100.00
66668;BME280;57205;51.438;-2.006;2023-05-12T02:15:39;101422.88;;;8.45;100.00
66668;BME280;57205;51.438;-2.006;2023-05-12T02:18:05;101415.31;;;8.42;100.00
66668;BME280;57205;51.438;-2.006;2023-05-12T02:20:30;101416.63;;;8.39;100.00
66668;BME280;57205;51.438;-2.006;2023-05-12T02:22:55;101417.53;;;8.33;100.00
66668;BME280;57205;51.438;-2.006;2023-05-12T02:25:21;101424.13;;;8.31;100.00
66668;BME280;57205;51.438;-2.006;2023-05-12T02:27:46;101422.97;;;8.27;100.00
66668;BME280;57205;51.438;-2.006;2023-05-12T02:30:12;101415.63;;;8.22;100.00
66668;BME280;57205;51.438;-2.006;2023-05-12T02:32:37;101426.97;;;8.18;100.00
66668;BME280;57205;51.438;-2.006;2023-05-12T02:35:03;101424.09;;;8.19;100.00
66668;BME280;57205;51.438;-2.006;2023-05-12T02:37:28;101432.88;;;8.20;100.00
66668;BME280;57205;51.438;-2.006;2023-05-12T02:39:53;101434.59;;;8.14;100.00
66668;BME280;57205;51.438;-2.006;2023-05-12T02:42:19;101432.63;;;8.10;100.00
66668;BME280;57205;51.438;-2.006;2023-05-12T02:44:44;101430.22;;;8.08;100.00
66668;BME280;57205;51.438;-2.006;2023-05-12T02:47:10;101431.81;;;8.09;100.00
66668;BME280;57205;51.438;-2.006;2023-05-12T02:49:35;101432.28;;;8.06;100.00
66668;BME280;57205;51.438;-2.006;2023-05-12T02:52:00;101441.22;;;8.12;100.00
66668;BME280;57205;51.438;-2.006;2023-05-12T02:54:26;101449.88;;;8.07;100.00
66668;BME280;57205;51.438;-2.006;2023-05-12T02:56:51;101448.28;;;8.06;100.00
66668;BME280;57205;51.438;-2.006;2023-05-12T02:59:17;101453.81;;;8.05;100.00
66668;BME280;57205;51.438;-2.006;2023-05-12T03:01:42;101457.75;;;8.02;100.00
66668;BME280;57205;51.438;-2.006;2023-05-12T03:04:08;101461.44;;;8.01;100.00
66668;BME280;57205;51.438;-2.006;2023-05-12T03:06:33;101464.56;;;7.98;100.00
66668;BME280;57205;51.438;-2.006;2023-05-12T03:08:58;101460.28;;;7.97;100.00
66668;BME280;57205;51.438;-2.006;2023-05-12T03:11:24;101457.41;;;7.99;100.00
66668;BME280;57205;51.438;-2.006;2023-05-12T03:13:50;101466.41;;;7.98;100.00
66668;BME280;57205;51.438;-2.006;2023-05-12T03:16:15;101465.59;;;7.97;100.00
66668;BME280;57205;51.438;-2.006;2023-05-12T03:18:41;101478.72;;;7.99;100.00
66668;BME280;57205;51.438;-2.006;2023-05-12T03:21:07;101486.56;;;8.23;100.00
66668;BME280;57205;51.438;-2.006;2023-05-12T03:23:33;101480.84;;;8.49;100.00
66668;BME280;57205;51.438;-2.006;2023-05-12T03:25:59;101485.53;;;8.65;100.00
66668;BME280;57205;51.438;-2.006;2023-05-12T03:28:24;101494.34;;;8.77;100.00
66668;BME280;57205;51.438;-2.006;2023-05-12T03:30:50;101494.59;;;8.88;100.00
66668;BME280;57205;51.438;-2.006;2023-05-12T03:33:15;101496.69;;;8.97;100.00
66668;BME280;57205;51.438;-2.006;2023-05-12T03:35:41;101498.22;;;9.05;100.00
66668;BME280;57205;51.438;-2.006;2023-05-12T03:38:06;101500.75;;;9.11;100.00
66668;BME280;57205;51.438;-2.006;2023-05-12T03:40:32;101508.41;;;9.19;100.00
66668;BME280;57205;51.438;-2.006;2023-05-12T03:42:57;101513.63;;;9.26;100.00
66668;BME280;57205;51.438;-2.006;2023-05-12T03:45:23;101510.84;;;9.32;100.00
66668;BME280;57205;51.438;-2.006;2023-05-12T03:47:48;101515.47;;;9.37;100.00
66668;BME280;57205;51.438;-2.006;2023-05-12T03:50:13;101517.22;;;9.43;100.00
66668;BME280;57205;51.438;-2.006;2023-05-12T03:52:39;101521.03;;;9.47;100.00
66668;BME280;57205;51.438;-2.006;2023-05-12T03:55:05;101522.44;;;9.49;100.00
66668;BME280;57205;51.438;-2.006;2023-05-12T03:57:32;101522.22;;;9.51;100.00
66668;BME280;57205;51.438;-2.006;2023-05-12T03:59:58;101523.00;;;9.51;100.00
66668;BME280;57205;51.438;-2.006;2023-05-12T04:02:24;101528.72;;;9.55;100.00
66668;BME280;57205;51.438;-2.006;2023-05-12T04:04:49;101528.22;;;9.58;100.00
66668;BME280;57205;51.438;-2.006;2023-05-12T04:07:14;101534.41;;;9.58;100.00
66668;BME280;57205;51.438;-2.006;2023-05-12T04:09:40;101536.25;;;9.58;100.00
66668;BME280;57205;51.438;-2.006;2023-05-12T04:12:06;101533.56;;;9.58;100.00
66668;BME280;57205;51.438;-2.006;2023-05-12T04:14:31;101537.06;;;9.58;100.00
66668;BME280;57205;51.438;-2.006;2023-05-12T04:16:57;101539.75;;;9.58;100.00
66668;BME280;57205;51.438;-2.006;2023-05-12T04:19:22;101543.44;;;9.57;100.00
66668;BME280;57205;51.438;-2.006;2023-05-12T04:21:48;101547.75;;;9.58;100.00
66668;BME280;57205;51.438;-2.006;2023-05-12T04:24:13;101550.75;;;9.62;100.00
66668;BME280;57205;51.438;-2.006;2023-05-12T04:26:39;101560.97;;;9.65;100.00
66668;BME280;57205;51.438;-2.006;2023-05-12T04:29:04;101558.06;;;9.66;100.00
66668;BME280;57205;51.438;-2.006;2023-05-12T04:31:29;101557.84;;;9.68;100.00
66668;BME280;57205;51.438;-2.006;2023-05-12T04:33:55;101558.97;;;9.72;100.00
66668;BME280;57205;51.438;-2.006;2023-05-12T04:36:21;101568.63;;;9.73;100.00
66668;BME280;57205;51.438;-2.006;2023-05-12T04:38:47;101556.19;;;9.78;100.00
66668;BME280;57205;51.438;-2.006;2023-05-12T04:41:12;101568.75;;;9.78;100.00
66668;BME280;57205;51.438;-2.006;2023-05-12T04:43:37;101569.31;;;9.80;100.00
66668;BME280;57205;51.438;-2.006;2023-05-12T04:46:03;101569.66;;;9.83;100.00
66668;BME280;57205;51.438;-2.006;2023-05-12T04:48:28;101569.16;;;9.86;100.00
66668;BME280;57205;51.438;-2.006;2023-05-12T04:50:54;101572.44;;;9.88;100.00
66668;BME280;57205;51.438;-2.006;2023-05-12T04:53:19;101571.97;;;9.92;100.00
66668;BME280;57205;51.438;-2.006;2023-05-12T04:55:45;101579.41;;;9.90;100.00
66668;BME280;57205;51.438;-2.006;2023-05-12T04:58:13;101584.53;;;9.91;100.00
66668;BME280;57205;51.438;-2.006;2023-05-12T05:00:39;101593.34;;;9.92;100.00
66668;BME280;57205;51.438;-2.006;2023-05-12T05:03:04;101590.19;;;9.95;100.00
66668;BME280;57205;51.438;-2.006;2023-05-12T05:05:30;101591.13;;;10.00;100.00
66668;BME280;57205;51.438;-2.006;2023-05-12T05:07:55;101591.13;;;10.00;100.00
66668;BME280;57205;51.438;-2.006;2023-05-12T05:10:22;101591.13;;;10.00;100.00
66668;BME280;57205;51.438;-2.006;2023-05-12T05:12:47;101589.59;;;10.04;100.00
66668;BME280;57205;51.438;-2.006;2023-05-12T05:15:13;101586.44;;;10.07;100.00
66668;BME280;57205;51.438;-2.006;2023-05-12T05:17:38;101596.72;;;10.10;100.00
66668;BME280;57205;51.438;-2.006;2023-05-12T05:20:04;101599.97;;;10.12;100.00
66668;BME280;57205;51.438;-2.006;2023-05-12T05:22:31;101609.69;;;10.18;100.00
66668;BME280;57205;51.438;-2.006;2023-05-12T05:24:56;101607.16;;;10.23;100.00
66668;BME280;57205;51.438;-2.006;2023-05-12T05:27:22;101614.09;;;10.24;100.00
66668;BME280;57205;51.438;-2.006;2023-05-12T05:29:47;101609.25;;;10.21;100.00
66668;BME280;57205;51.438;-2.006;2023-05-12T05:32:13;101614.94;;;10.25;100.00
66668;BME280;57205;51.438;-2.006;2023-05-12T05:34:39;101616.91;;;10.29;100.00
66668;BME280;57205;51.438;-2.006;2023-05-12T05:37:04;101618.59;;;10.35;100.00
66668;BME280;57205;51.438;-2.006;2023-05-12T05:39:30;101621.03;;;10.37;100.00
66668;BME280;57205;51.438;-2.006;2023-05-12T05:41:56;101622.44;;;10.39;100.00
66668;BME280;57205;51.438;-2.006;2023-05-12T05:44:23;101623.25;;;10.40;100.00
66668;BME280;57205;51.438;-2.006;2023-05-12T05:46:49;101626.84;;;10.45;100.00
66668;BME280;57205;51.438;-2.006;2023-05-12T05:49:14;101635.53;;;10.52;100.00
66668;BME280;57205;51.438;-2.006;2023-05-12T05:51:39;101634.81;;;10.57;100.00
66668;BME280;57205;51.438;-2.006;2023-05-12T05:54:05;101626.97;;;10.67;100.00
66668;BME280;57205;51.438;-2.006;2023-05-12T05:56:30;101625.44;;;10.71;100.00
66668;BME280;57205;51.438;-2.006;2023-05-12T05:58:57;101631.13;;;10.74;100.00
66668;BME280;57205;51.438;-2.006;2023-05-12T06:01:26;101633.09;;;10.79;100.00
66668;BME280;57205;51.438;-2.006;2023-05-12T06:03:52;101635.03;;;10.83;100.00
66668;BME280;57205;51.438;-2.006;2023-05-12T06:06:17;101642.09;;;10.90;100.00
66668;BME280;57205;51.438;-2.006;2023-05-12T06:08:42;101629.28;;;10.92;100.00
66668;BME280;57205;51.438;-2.006;2023-05-12T06:11:08;101627.75;;;10.96;100.00
66668;BME280;57205;51.438;-2.006;2023-05-12T06:13:33;101627.75;;;10.96;100.00
66668;BME280;57205;51.438;-2.006;2023-05-12T06:15:59;101629.13;;;10.98;100.00
66668;BME280;57205;51.438;-2.006;2023-05-12T06:18:24;101640.41;;;11.00;100.00
66668;BME280;57205;51.438;-2.006;2023-05-12T06:20:49;101635.63;;;11.02;100.00
66668;BME280;57205;51.438;-2.006;2023-05-12T06:23:15;101640.59;;;11.10;100.00
66668;BME280;57205;51.438;-2.006;2023-05-12T06:25:40;101649.19;;;11.12;100.00
66668;BME280;57205;51.438;-2.006;2023-05-12T06:28:05;101643.03;;;11.12;100.00
66668;BME280;57205;51.438;-2.006;2023-05-12T06:30:31;101640.03;;;11.08;100.00
66668;BME280;57205;51.438;-2.006;2023-05-12T06:32:57;101648.63;;;11.10;100.00
66668;BME280;57205;51.438;-2.006;2023-05-12T06:35:23;101648.88;;;11.09;100.00
66668;BME280;57205;51.438;-2.006;2023-05-12T06:37:49;101644.31;;;11.09;100.00
66668;BME280;57205;51.438;-2.006;2023-05-12T06:40:15;101644.09;;;11.11;100.00
66668;BME280;57205;51.438;-2.006;2023-05-12T06:42:43;101655.47;;;11.18;100.00
66668;BME280;57205;51.438;-2.006;2023-05-12T06:45:10;101651.25;;;11.22;100.00
66668;BME280;57205;51.438;-2.006;2023-05-12T06:47:37;101643.28;;;11.27;100.00
66668;BME280;57205;51.438;-2.006;2023-05-12T06:50:03;101647.75;;;11.38;100.00
66668;BME280;57205;51.438;-2.006;2023-05-12T06:52:28;101653.59;;;11.51;100.00
66668;BME280;57205;51.438;-2.006;2023-05-12T06:54:54;101643.72;;;11.90;100.00
66668;BME280;57205;51.438;-2.006;2023-05-12T06:57:19;101649.81;;;12.24;100.00
66668;BME280;57205;51.438;-2.006;2023-05-12T06:59:45;101645.94;;;12.36;100.00
66668;BME280;57205;51.438;-2.006;2023-05-12T07:02:11;101654.50;;;12.33;100.00
66668;BME280;57205;51.438;-2.006;2023-05-12T07:04:37;101657.66;;;12.30;100.00
66668;BME280;57205;51.438;-2.006;2023-05-12T07:07:03;101660.91;;;12.32;100.00
66668;BME280;57205;51.438;-2.006;2023-05-12T07:09:28;101652.28;;;12.30;100.00
66668;BME280;57205;51.438;-2.006;2023-05-12T07:11:53;101651.88;;;12.38;100.00
66668;BME280;57205;51.438;-2.006;2023-05-12T07:14:19;101654.25;;;12.35;100.00
66668;BME280;57205;51.438;-2.006;2023-05-12T07:16:44;101655.06;;;12.35;100.00
66668;BME280;57205;51.438;-2.006;2023-05-12T07:19:10;101655.22;;;12.29;100.00
66668;BME280;57205;51.438;-2.006;2023-05-12T07:21:36;101656.78;;;12.25;100.00
66668;BME280;57205;51.438;-2.006;2023-05-12T07:24:02;101668.28;;;12.20;100.00
66668;BME280;57205;51.438;-2.006;2023-05-12T07:26:27;101668.75;;;12.17;100.00
66668;BME280;57205;51.438;-2.006;2023-05-12T07:28:53;101679.44;;;12.12;100.00
66668;BME280;57205;51.438;-2.006;2023-05-12T07:31:19;101679.44;;;12.12;100.00
66668;BME280;57205;51.438;-2.006;2023-05-12T07:33:44;101683.66;;;12.08;100.00
66668;BME280;57205;51.438;-2.006;2023-05-12T07:36:10;101681.56;;;12.10;100.00
66668;BME280;57205;51.438;-2.006;2023-05-12T07:38:35;101694.66;;;12.07;100.00
66668;BME280;57205;51.438;-2.006;2023-05-12T07:41:01;101694.97;;;12.10;100.00
66668;BME280;57205;51.438;-2.006;2023-05-12T07:43:27;101694.66;;;12.07;100.00
66668;BME280;57205;51.438;-2.006;2023-05-12T07:45:53;101697.66;;;12.10;100.00
66668;BME280;57205;51.438;-2.006;2023-05-12T07:48:20;101700.41;;;12.15;100.00
66668;BME280;57205;51.438;-2.006;2023-05-12T07:50:46;101705.41;;;12.28;100.00
66668;BME280;57205;51.438;-2.006;2023-05-12T07:53:11;101689.63;;;12.53;100.00
66668;BME280;57205;51.438;-2.006;2023-05-12T07:55:36;101690.06;;;12.94;100.00
66668;BME280;57205;51.438;-2.006;2023-05-12T07:58:02;101688.47;;;13.51;100.00
66668;BME280;57205;51.438;-2.006;2023-05-12T08:00:28;101672.72;;;14.11;100.00
66668;BME280;57205;51.438;-2.006;2023-05-12T08:02:53;101671.81;;;14.47;100.00
66668;BME280;57205;51.438;-2.006;2023-05-12T08:05:19;101658.72;;;14.76;100.00
66668;BME280;57205;51.438;-2.006;2023-05-12T08:07:44;101655.81;;;15.03;100.00
66668;BME280;57205;51.438;-2.006;2023-05-12T08:10:10;101657.97;;;15.01;100.00
66668;BME280;57205;51.438;-2.006;2023-05-12T08:12:37;101662.28;;;15.32;100.00
66668;BME280;57205;51.438;-2.006;2023-05-12T08:15:04;101651.50;;;15.32;100.00
66668;BME280;57205;51.438;-2.006;2023-05-12T08:17:30;101656.09;;;15.51;100.00
66668;BME280;57205;51.438;-2.006;2023-05-12T08:19:55;101663.63;;;15.64;100.00
66668;BME280;57205;51.438;-2.006;2023-05-12T08:22:21;101652.53;;;15.86;100.00
66668;BME280;57205;51.438;-2.006;2023-05-12T08:24:46;101655.75;;;16.03;100.00
66668;BME280;57205;51.438;-2.006;2023-05-12T08:27:12;101653.94;;;16.52;100.00
66668;BME280;57205;51.438;-2.006;2023-05-12T08:29:38;101662.56;;;17.03;100.00
66668;BME280;57205;51.438;-2.006;2023-05-12T08:32:04;101646.97;;;17.24;100.00
66668;BME280;57205;51.438;-2.006;2023-05-12T08:34:29;101660.72;;;16.94;100.00
66668;BME280;57205;51.438;-2.006;2023-05-12T08:36:55;101664.34;;;16.79;100.00
66668;BME280;57205;51.438;-2.006;2023-05-12T08:39:21;101670.47;;;16.90;100.00
66668;BME280;57205;51.438;-2.006;2023-05-12T08:44:25;101660.16;;;17.30;100.00
66668;BME280;57205;51.438;-2.006;2023-05-12T08:46:51;101662.25;;;17.72;96.99
66668;BME280;57205;51.438;-2.006;2023-05-12T08:49:20;101664.69;;;17.97;95.15
66668;BME280;57205;51.438;-2.006;2023-05-12T08:51:47;101655.34;;;18.56;87.91
66668;BME280;57205;51.438;-2.006;2023-05-12T08:54:14;101651.81;;;18.92;84.12
66668;BME280;57205;51.438;-2.006;2023-05-12T08:56:41;101661.28;;;19.45;81.89
66668;BME280;57205;51.438;-2.006;2023-05-12T08:59:08;101664.09;;;19.40;77.67
66668;BME280;57205;51.438;-2.006;2023-05-12T09:01:35;101661.28;;;19.32;77.59
66668;BME280;57205;51.438;-2.006;2023-05-12T09:04:01;101658.59;;;18.95;77.95
66668;BME280;57205;51.438;-2.006;2023-05-12T09:06:27;101663.63;;;18.64;83.54
66668;BME280;57205;51.438;-2.006;2023-05-12T09:08:53;101664.88;;;18.72;83.43
66668;BME280;57205;51.438;-2.006;2023-05-12T09:11:19;101662.59;;;18.97;79.72
66668;BME280;57205;51.438;-2.006;2023-05-12T09:14:06;101664.00;;;19.32;77.82
66668;BME280;57205;51.438;-2.006;2023-05-12T09:16:36;101667.03;;;19.44;78.16
66668;BME280;57205;51.438;-2.006;2023-05-12T09:19:03;101674.75;;;19.18;76.34
66668;BME280;57205;51.438;-2.006;2023-05-12T09:21:29;101667.03;;;18.75;79.07
66668;BME280;57205;51.438;-2.006;2023-05-12T09:23:57;101671.03;;;18.59;79.31
66668;BME280;57205;51.438;-2.006;2023-05-12T09:26:24;101665.50;;;18.21;81.76
66668;BME280;57205;51.438;-2.006;2023-05-12T09:28:52;101667.91;;;17.99;85.23
66668;BME280;57205;51.438;-2.006;2023-05-12T09:31:20;101661.66;;;18.70;83.42
66668;BME280;57205;51.438;-2.006;2023-05-12T09:33:47;101671.75;;;18.83;79.08
66668;BME280;57205;51.438;-2.006;2023-05-12T09:36:33;101676.06;;;18.46;78.60
66668;BME280;57205;51.438;-2.006;2023-05-12T09:39:00;101672.66;;;18.12;82.98
66668;BME280;57205;51.438;-2.006;2023-05-12T09:41:35;101661.13;;;18.02;84.55
66668;BME280;57205;51.438;-2.006;2023-05-12T09:44:01;101675.28;;;18.17;84.59
66668;BME280;57205;51.438;-2.006;2023-05-12T09:46:26;101666.94;;;18.14;82.19
66668;BME280;57205;51.438;-2.006;2023-05-12T09:48:55;101670.94;;;18.64;80.57
66668;BME280;57205;51.438;-2.006;2023-05-12T09:51:21;101682.31;;;18.66;78.96
66668;BME280;57205;51.438;-2.006;2023-05-12T09:53:47;101689.41;;;18.38;78.72
66668;BME280;57205;51.438;-2.006;2023-05-12T09:56:13;101690.41;;;18.23;80.85
66668;BME280;57205;51.438;-2.006;2023-05-12T09:58:41;101686.41;;;18.44;80.70
66668;BME280;57205;51.438;-2.006;2023-05-12T10:01:10;101683.84;;;18.53;78.80
66668;BME280;57205;51.438;-2.006;2023-05-12T10:03:37;101683.22;;;18.37;80.17
66668;BME280;57205;51.438;-2.006;2023-05-12T10:06:05;101684.69;;;18.01;83.41
66668;BME280;57205;51.438;-2.006;2023-05-12T10:08:43;101687.03;;;17.84;86.24
66668;BME280;57205;51.438;-2.006;2023-05-12T10:11:12;101682.41;;;17.61;86.85
66668;BME280;57205;51.438;-2.006;2023-05-12T10:13:39;101694.16;;;17.41;87.48
66668;BME280;57205;51.438;-2.006;2023-05-12T10:16:06;101683.25;;;17.18;89.86
66668;BME280;57205;51.438;-2.006;2023-05-12T10:18:32;101678.22;;;17.40;89.46
66668;BME280;57205;51.438;-2.006;2023-05-12T10:20:59;101686.66;;;17.67;89.09
66668;BME280;57205;51.438;-2.006;2023-05-12T10:23:26;101691.84;;;17.92;84.20
66668;BME280;57205;51.438;-2.006;2023-05-12T10:25:53;101679.56;;;17.76;85.29
66668;BME280;57205;51.438;-2.006;2023-05-12T10:28:23;101669.03;;;17.70;88.04
66668;BME280;57205;51.438;-2.006;2023-05-12T10:30:50;101693.75;;;17.63;87.52
66668;BME280;57205;51.438;-2.006;2023-05-12T10:33:15;101681.13;;;17.53;88.24
66668;BME280;57205;51.438;-2.006;2023-05-12T10:35:42;101688.00;;;17.70;87.48
66668;BME280;57205;51.438;-2.006;2023-05-12T10:38:10;101676.56;;;17.44;89.09
66668;BME280;57205;51.438;-2.006;2023-05-12T10:40:51;101692.78;;;17.49;90.62
66668;BME280;57205;51.438;-2.006;2023-05-12T10:43:21;101686.91;;;17.37;91.62
66668;BME280;57205;51.438;-2.006;2023-05-12T10:46:08;101684.28;;;17.27;93.96
66668;BME280;57205;51.438;-2.006;2023-05-12T10:48:35;101672.75;;;17.50;91.29
66668;BME280;57205;51.438;-2.006;2023-05-12T10:51:08;101672.06;;;17.92;88.31
66668;BME280;57205;51.438;-2.006;2023-05-12T10:53:37;101674.53;;;18.12;86.58
66668;BME280;57205;51.438;-2.006;2023-05-12T10:56:04;101669.13;;;17.88;88.14
66668;BME280;57205;51.438;-2.006;2023-05-12T10:58:31;101680.53;;;17.85;86.73
66668;BME280;57205;51.438;-2.006;2023-05-12T11:01:04;101673.44;;;17.89;86.49
66668;BME280;57205;51.438;-2.006;2023-05-12T11:03:30;101685.84;;;17.95;85.21
66668;BME280;57205;51.438;-2.006;2023-05-12T11:06:03;101682.34;;;17.66;85.28
66668;BME280;57205;51.438;-2.006;2023-05-12T11:08:29;101691.53;;;17.70;86.02
66668;BME280;57205;51.438;-2.006;2023-05-12T11:11:02;101687.91;;;17.51;88.55
66668;BME280;57205;51.438;-2.006;2023-05-12T11:13:27;101696.47;;;17.63;88.78
66668;BME280;57205;51.438;-2.006;2023-05-12T11:15:55;101689.94;;;17.64;87.45
66668;BME280;57205;51.438;-2.006;2023-05-12T11:18:22;101694.97;;;17.42;88.60
66668;BME280;57205;51.438;-2.006;2023-05-12T11:20:48;101696.53;;;17.53;88.08
66668;BME280;57205;51.438;-2.006;2023-05-12T11:23:27;101689.53;;;17.52;87.79
66668;BME280;57205;51.438;-2.006;2023-05-12T11:25:56;101708.66;;;17.22;89.71
66668;BME280;57205;51.438;-2.006;2023-05-12T11:28:21;101695.09;;;17.27;88.83
66668;BME280;57205;51.438;-2.006;2023-05-12T11:30:51;101686.50;;;17.20;89.16
66668;BME280;57205;51.438;-2.006;2023-05-12T11:33:20;101708.03;;;16.96;88.97
66668;BME280;57205;51.438;-2.006;2023-05-12T11:35:47;101686.84;;;16.59;92.37
66668;BME280;57205;51.438;-2.006;2023-05-12T11:38:17;101695.53;;;16.56;95.59
66668;BME280;57205;51.438;-2.006;2023-05-12T11:40:42;101694.34;;;16.78;91.83
66668;BME280;57205;51.438;-2.006;2023-05-12T11:43:09;101696.84;;;17.13;91.96
66668;BME280;57205;51.438;-2.006;2023-05-12T11:45:34;101704.16;;;17.46;89.65
66668;BME280;57205;51.438;-2.006;2023-05-12T11:48:08;101691.28;;;17.33;87.33
66668;BME280;57205;51.438;-2.006;2023-05-12T11:50:40;101701.13;;;17.14;88.94
66668;BME280;57205;51.438;-2.006;2023-05-12T11:53:17;101695.44;;;17.20;88.16
66668;BME280;57205;51.438;-2.006;2023-05-12T11:56:01;101698.91;;;17.26;88.90
66668;BME280;57205;51.438;-2.006;2023-05-12T11:58:26;101696.59;;;17.48;88.69
66668;BME280;57205;51.438;-2.006;2023-05-12T12:00:56;101696.09;;;17.36;88.31
66668;BME280;57205;51.438;-2.006;2023-05-12T12:03:23;101693.28;;;17.17;88.21
66668;BME280;57205;51.438;-2.006;2023-05-12T12:05:59;101696.69;;;17.33;87.87
66668;BME280;57205;51.438;-2.006;2023-05-12T12:08:25;101708.88;;;17.30;84.92
66668;BME280;57205;51.438;-2.006;2023-05-12T12:10:50;101691.28;;;17.33;86.52
66668;BME280;57205;51.438;-2.006;2023-05-12T12:13:20;101701.00;;;17.34;87.06
66668;BME280;57205;51.438;-2.006;2023-05-12T12:15:46;101716.22;;;17.25;89.70
66668;BME280;57205;51.438;-2.006;2023-05-12T12:18:11;101712.91;;;16.94;91.14
66668;BME280;57205;51.438;-2.006;2023-05-12T12:20:37;101706.16;;;16.92;91.88
66668;BME280;57205;51.438;-2.006;2023-05-12T12:23:02;101706.69;;;16.94;93.32
66668;BME280;57205;51.438;-2.006;2023-05-12T12:25:28;101708.44;;;17.18;90.40
66668;BME280;57205;51.438;-2.006;2023-05-12T12:27:53;101707.03;;;17.26;89.34
66668;BME280;57205;51.438;-2.006;2023-05-12T12:30:18;101709.09;;;17.39;89.70
66668;BME280;57205;51.438;-2.006;2023-05-12T12:32:44;101706.13;;;17.35;88.97
66668;BME280;57205;51.438;-2.006;2023-05-12T12:35:11;101700.69;;;17.40;89.27
66668;BME280;57205;51.438;-2.006;2023-05-12T12:37:38;101695.78;;;17.09;89.10